Terminal Aerodrome Forecast
Issued by NWS

Home | Current Version | Previous Version | Text Only | Print | Product List | Glossary On
Versions: 1 2 3 4 5 6 7 8 9 10 11 12 13 14 15
000
FTUS46 KMTR 291736
TAFSNS
TAF
KSNS 291736Z 2918/3018 28006KT P6SM FEW250
     FM292100 28011G16KT P6SM BKN250
     FM300400 28008KT P6SM SCT250
     FM300900 28005KT P6SM BKN010
     FM301200 VRB03KT P6SM OVC007
     FM301600 VRB04KT P6SM FEW008=

USA.gov is the U.S. government's official web portal to all federal, state and local government web resources and services.